createdAt,value
2023-01-23T00:00:35.001Z,15.13
2023-01-23T00:05:58.867Z,14.80
2023-01-23T00:11:23.823Z,15.00
2023-01-23T00:16:45.647Z,13.88
2023-01-23T00:22:07.505Z,13.55
2023-01-23T00:27:29.622Z,15.30
2023-01-23T00:32:51.521Z,13.20
2023-01-23T00:38:13.429Z,13.65
2023-01-23T00:43:35.300Z,13.75
2023-01-23T00:48:57.180Z,14.32
2023-01-23T00:54:19.087Z,15.43
2023-01-23T00:59:41.099Z,15.07
2023-01-23T01:05:02.987Z,15.23
2023-01-23T01:10:25.108Z,14.68
2023-01-23T01:15:51.619Z,14.40
2023-01-23T01:21:15.638Z,15.45
2023-01-23T01:26:37.540Z,13.65
2023-01-23T01:31:59.434Z,15.15
2023-01-23T01:37:21.344Z,14.98
2023-01-23T01:42:45.607Z,13.73
2023-01-23T01:48:07.539Z,14.50
2023-01-23T01:53:31.686Z,14.63
2023-01-23T01:58:54.302Z,14.40
2023-01-23T02:04:16.172Z,14.68
2023-01-23T02:09:38.275Z,15.90
2023-01-23T02:15:00.682Z,15.00
2023-01-23T02:20:25.602Z,15.52
2023-01-23T02:25:59.880Z,16.38
2023-01-23T02:31:23.308Z,15.05
2023-01-23T02:36:48.200Z,15.80
2023-01-23T02:42:10.265Z,15.52
2023-01-23T02:47:32.144Z,14.35
2023-01-23T02:52:54.046Z,14.68
2023-01-23T02:58:15.916Z,14.75
2023-01-23T03:03:37.792Z,16.52
2023-01-23T03:08:59.601Z,16.02
2023-01-23T03:14:22.973Z,17.65
2023-01-23T03:19:44.878Z,16.58
2023-01-23T03:25:06.993Z,16.63
2023-01-23T03:30:28.835Z,17.50
2023-01-23T03:35:50.733Z,17.13
2023-01-23T03:41:12.587Z,17.35
2023-01-23T03:46:34.854Z,18.70
2023-01-23T03:51:56.676Z,18.67
2023-01-23T03:57:18.919Z,18.92
2023-01-23T04:02:41.224Z,18.33
2023-01-23T04:08:03.894Z,18.45
2023-01-23T04:13:25.748Z,19.38
2023-01-23T04:18:47.568Z,19.58
2023-01-23T04:24:09.374Z,19.25
2023-01-23T04:29:31.212Z,19.13
2023-01-23T04:34:53.053Z,20.13
2023-01-23T04:40:14.948Z,19.27
2023-01-23T04:45:36.832Z,18.80
2023-01-23T04:50:58.686Z,20.52
2023-01-23T04:56:20.556Z,21.30
2023-01-23T05:01:43.202Z,20.42
2023-01-23T05:07:05.273Z,19.85
2023-01-23T05:12:27.135Z,21.27
2023-01-23T05:17:49.546Z,20.58
2023-01-23T05:23:11.413Z,21.13
2023-01-23T05:28:33.422Z,21.92
2023-01-23T05:33:55.252Z,21.45
2023-01-23T05:39:17.187Z,21.10
2023-01-23T05:44:39.089Z,20.35
2023-01-23T05:50:01.221Z,20.02
2023-01-23T05:55:23.321Z,19.98
2023-01-23T06:00:45.183Z,20.75
2023-01-23T06:06:07.385Z,22.27
2023-01-23T06:11:29.256Z,20.33
2023-01-23T06:16:51.099Z,26.00
2023-01-23T06:22:12.956Z,21.80
2023-01-23T06:27:34.831Z,21.23
2023-01-23T06:32:56.875Z,20.75
2023-01-23T06:38:18.714Z,21.05
2023-01-23T06:43:40.617Z,21.63
2023-01-23T06:49:05.918Z,19.38
2023-01-23T06:54:28.051Z,20.83
2023-01-23T06:59:50.149Z,20.80
2023-01-23T07:05:12.007Z,21.95
2023-01-23T07:10:34.340Z,20.35
2023-01-23T07:15:56.258Z,20.00
2023-01-23T07:21:18.130Z,20.05
2023-01-23T07:26:40.126Z,19.08
2023-01-23T07:32:02.012Z,20.67
2023-01-23T07:37:23.897Z,18.30
2023-01-23T07:42:45.717Z,19.10
2023-01-23T07:48:08.288Z,17.42
2023-01-23T07:53:30.177Z,17.73
2023-01-23T07:58:52.153Z,20.15
2023-01-23T08:04:14.007Z,17.45
2023-01-23T08:09:35.909Z,17.00
2023-01-23T08:14:57.801Z,18.35
2023-01-23T08:20:19.950Z,17.63
2023-01-23T08:25:41.900Z,17.25
2023-01-23T08:31:06.988Z,17.92
2023-01-23T08:36:28.997Z,17.45
2023-01-23T08:41:51.208Z,17.90
2023-01-23T08:47:13.065Z,18.50
2023-01-23T08:52:34.896Z,18.05
2023-01-23T08:57:56.739Z,20.50
2023-01-23T09:03:18.573Z,19.45
2023-01-23T09:08:40.612Z,19.98
2023-01-23T09:14:02.533Z,19.17
2023-01-23T09:19:24.508Z,19.58
2023-01-23T09:24:46.352Z,18.23
2023-01-23T09:30:08.759Z,19.02
2023-01-23T09:35:31.013Z,19.15
2023-01-23T09:41:00.076Z,19.60
2023-01-23T09:46:28.775Z,19.15
2023-01-23T09:52:06.622Z,19.92
2023-01-23T09:57:39.140Z,22.45
2023-01-23T10:03:06.364Z,19.98
2023-01-23T10:08:42.719Z,22.00
2023-01-23T10:20:17.540Z,23.38
2023-01-23T10:25:40.833Z,23.88
2023-01-23T10:31:10.527Z,23.83
2023-01-23T10:37:02.313Z,26.98
2023-01-23T10:42:26.871Z,27.95
2023-01-23T10:47:54.686Z,27.95
2023-01-23T10:53:20.326Z,27.15
2023-01-23T10:58:42.828Z,26.45
2023-01-23T11:04:35.510Z,26.65
2023-01-23T11:10:23.264Z,24.88
2023-01-23T11:15:48.528Z,24.40
2023-01-23T11:21:22.601Z,20.35
2023-01-23T11:26:44.679Z,21.60
2023-01-23T11:32:13.224Z,18.90
2023-01-23T11:37:38.987Z,21.42
2023-01-23T11:43:00.858Z,15.00
2023-01-23T11:48:35.368Z,19.67
2023-01-23T11:54:20.968Z,18.45
2023-01-23T11:59:53.319Z,17.47
2023-01-23T12:05:33.793Z,19.25
2023-01-23T12:11:12.412Z,18.83
2023-01-23T12:16:36.875Z,19.63
2023-01-23T12:22:10.586Z,20.83
2023-01-23T12:27:42.438Z,20.52
2023-01-23T12:33:28.263Z,19.20
2023-01-23T12:39:38.118Z,21.30
2023-01-23T12:45:11.877Z,18.92
2023-01-23T12:50:50.366Z,18.92
2023-01-23T12:56:27.163Z,24.17
2023-01-23T13:02:07.085Z,26.90
2023-01-23T13:07:56.003Z,26.88
2023-01-23T13:13:19.080Z,24.83
2023-01-23T13:18:56.066Z,21.67
2023-01-23T13:24:44.680Z,20.05
2023-01-23T13:30:24.466Z,19.88
2023-01-23T13:35:49.300Z,20.73
2023-01-23T13:41:11.154Z,18.67
2023-01-23T14:21:18.765Z,20.70
2023-01-23T14:26:49.337Z,19.65
2023-01-23T14:32:33.056Z,19.88
2023-01-23T14:37:58.901Z,19.92
2023-01-23T14:43:23.001Z,20.98
2023-01-23T14:48:50.919Z,20.48
2023-01-23T14:54:22.787Z,20.38
2023-01-23T14:59:46.739Z,19.40
2023-01-23T15:05:10.307Z,19.77
2023-01-23T15:10:41.292Z,21.00
2023-01-23T15:16:06.472Z,19.45
2023-01-23T15:21:41.017Z,19.90
2023-01-23T15:27:06.745Z,20.48
2023-01-23T15:32:28.908Z,19.27
2023-01-23T15:37:52.940Z,20.95
2023-01-23T15:43:18.581Z,20.13
2023-01-23T15:48:40.441Z,21.13
2023-01-23T15:54:04.264Z,19.00
2023-01-23T15:59:27.027Z,21.55
2023-01-23T16:04:49.554Z,21.48
2023-01-23T16:10:22.015Z,22.38
2023-01-23T16:15:43.861Z,22.08
2023-01-23T16:21:06.280Z,23.58
2023-01-23T16:26:28.817Z,24.05
2023-01-23T16:31:50.713Z,24.33
2023-01-23T16:37:17.635Z,23.90
2023-01-23T16:42:41.047Z,23.90
2023-01-23T16:48:03.064Z,24.08
2023-01-23T16:53:31.666Z,25.10
2023-01-23T16:58:53.516Z,23.38
2023-01-23T17:04:18.995Z,25.33
2023-01-23T17:09:40.957Z,25.80
2023-01-23T17:15:03.703Z,25.42
2023-01-23T17:20:25.595Z,27.13
2023-01-23T17:25:59.253Z,24.63
2023-01-23T17:31:27.519Z,27.45
2023-01-23T17:36:50.922Z,30.20
2023-01-23T17:42:14.283Z,30.05
2023-01-23T17:47:36.354Z,29.98
2023-01-23T17:52:58.222Z,30.30
2023-01-23T17:58:20.403Z,30.38
2023-01-23T18:03:42.251Z,28.33
2023-01-23T18:09:04.133Z,29.05
2023-01-23T18:14:32.088Z,30.38
2023-01-23T18:19:54.178Z,30.15
2023-01-23T18:25:18.052Z,30.63
2023-01-23T18:30:56.805Z,30.25
2023-01-23T18:36:34.171Z,30.98
2023-01-23T18:42:14.507Z,31.10
2023-01-23T18:47:36.926Z,28.80
2023-01-23T18:53:24.800Z,30.50
2023-01-23T18:59:12.096Z,31.05
2023-01-23T19:04:41.246Z,30.52
2023-01-23T19:10:04.878Z,32.65
2023-01-23T19:15:32.381Z,32.88
2023-01-23T19:21:05.117Z,33.08
2023-01-23T19:26:39.757Z,34.38
2023-01-23T19:32:06.298Z,36.10
2023-01-23T19:37:28.571Z,35.95
2023-01-23T19:42:58.656Z,33.78
2023-01-23T19:48:27.482Z,33.88
2023-01-23T19:53:49.349Z,34.55
2023-01-23T19:59:11.452Z,35.47
2023-01-23T20:04:33.371Z,34.58
2023-01-23T20:09:55.302Z,30.98
2023-01-23T20:15:19.567Z,30.95
2023-01-23T20:20:41.527Z,33.40
2023-01-23T20:26:03.603Z,32.55
2023-01-23T20:31:25.604Z,31.83
2023-01-23T20:36:47.462Z,31.42
2023-01-23T20:42:10.653Z,30.00
2023-01-23T20:47:35.992Z,33.67
2023-01-23T20:52:57.869Z,33.33
2023-01-23T20:58:19.724Z,30.65
2023-01-23T21:03:42.189Z,31.83
2023-01-23T21:09:04.193Z,31.55
2023-01-23T21:14:26.111Z,31.17
2023-01-23T21:19:48.105Z,32.45
2023-01-23T21:25:09.944Z,30.52
2023-01-23T21:30:31.912Z,32.38
2023-01-23T21:35:54.683Z,33.63
2023-01-23T21:41:16.996Z,32.05
2023-01-23T21:46:38.976Z,34.78
2023-01-23T21:52:00.913Z,31.92
2023-01-23T21:57:23.068Z,34.40
2023-01-23T22:02:45.189Z,34.65
2023-01-23T22:08:07.279Z,34.88
2023-01-23T22:13:31.957Z,34.42
2023-01-23T22:18:53.839Z,34.33
2023-01-23T22:24:15.969Z,35.38
2023-01-23T22:29:37.831Z,32.35
2023-01-23T22:34:59.829Z,33.55
2023-01-23T22:40:21.725Z,34.63
2023-01-23T22:45:43.581Z,33.67
2023-01-23T22:51:08.497Z,34.42
2023-01-23T22:56:31.489Z,32.00
2023-01-23T23:01:53.315Z,33.03
2023-01-23T23:07:16.275Z,35.10
2023-01-23T23:12:38.180Z,35.63
2023-01-23T23:18:00.180Z,34.80
2023-01-23T23:23:22.058Z,35.15
2023-01-23T23:28:43.971Z,33.85
2023-01-23T23:34:05.973Z,34.10
2023-01-23T23:39:27.829Z,34.35
2023-01-23T23:44:49.669Z,32.70
2023-01-23T23:50:11.867Z,34.92
2023-01-23T23:55:33.735Z,32.97
